createdAt,value
2018-10-04T00:00:47.377Z,98474.77
2018-10-04T00:03:13.929Z,98475.20
2018-10-04T00:05:40.950Z,98472.61
2018-10-04T00:08:07.454Z,98476.70
2018-10-04T00:10:37.767Z,98477.83
2018-10-04T00:13:04.476Z,98479.83
2018-10-04T00:15:31.335Z,98476.21
2018-10-04T00:17:58.035Z,98480.19
2018-10-04T00:20:25.178Z,98486.44
2018-10-04T00:22:52.658Z,98478.67
2018-10-04T00:25:19.176Z,98477.09
2018-10-04T00:27:46.018Z,98482.88
2018-10-04T00:30:14.149Z,98476.22
2018-10-04T00:32:43.529Z,98479.28
2018-10-04T00:37:52.187Z,98483.61
2018-10-04T00:40:18.740Z,98477.63
2018-10-04T00:42:45.214Z,98479.83
2018-10-04T00:45:11.717Z,98480.39
2018-10-04T00:47:38.238Z,98477.58
2018-10-04T00:50:05.185Z,98480.22
2018-10-04T00:52:31.750Z,98480.06
2018-10-04T00:54:58.216Z,98478.72
2018-10-04T00:57:24.779Z,98476.91
2018-10-04T00:59:52.508Z,98479.89
2018-10-04T01:02:18.987Z,98478.92
2018-10-04T01:04:45.610Z,98474.63
2018-10-04T01:07:12.588Z,98482.17
2018-10-04T01:09:39.107Z,98476.59
2018-10-04T01:12:05.728Z,98482.86
2018-10-04T01:14:32.204Z,98480.70
2018-10-04T01:16:58.716Z,98476.78
2018-10-04T01:19:25.335Z,98474.80
2018-10-04T01:21:52.235Z,98472.00
2018-10-04T01:24:18.756Z,98475.48
2018-10-04T01:26:45.233Z,98468.87
2018-10-04T01:29:11.756Z,98473.64
2018-10-04T01:31:38.248Z,98474.95
2018-10-04T01:34:05.021Z,98475.64
2018-10-04T01:36:31.711Z,98467.08
2018-10-04T01:38:58.299Z,98473.62
2018-10-04T01:41:24.962Z,98469.18
2018-10-04T01:43:51.443Z,98469.97
2018-10-04T01:46:17.968Z,98466.68
2018-10-04T01:48:44.491Z,98472.55
2018-10-04T01:51:11.253Z,98470.59
2018-10-04T01:53:37.773Z,98477.25
2018-10-04T01:56:04.361Z,98477.37
2018-10-04T01:58:30.852Z,98478.19
2018-10-04T02:00:58.569Z,98473.72
2018-10-04T02:03:25.553Z,98470.77
2018-10-04T02:05:52.131Z,98476.00
2018-10-04T02:08:18.658Z,98471.91
2018-10-04T02:10:45.494Z,98483.84
2018-10-04T02:13:12.041Z,98477.09
2018-10-04T02:15:38.704Z,98476.11
2018-10-04T02:18:05.377Z,98477.26
2018-10-04T02:20:31.877Z,98479.70
2018-10-04T02:22:58.467Z,98487.84
2018-10-04T02:25:25.103Z,98492.06
2018-10-04T02:27:51.691Z,98486.13
2018-10-04T02:30:18.195Z,98493.38
2018-10-04T02:32:44.722Z,98495.78
2018-10-04T02:35:11.261Z,98495.23
2018-10-04T02:37:37.763Z,98502.50
2018-10-04T02:40:04.752Z,98502.90
2018-10-04T02:42:31.406Z,98504.08
2018-10-04T02:44:57.893Z,98504.29
2018-10-04T02:47:24.445Z,98509.12
2018-10-04T02:49:50.965Z,98513.59
2018-10-04T02:52:17.457Z,98513.02
2018-10-04T02:54:44.050Z,98511.53
2018-10-04T02:57:10.615Z,98512.42
2018-10-04T02:59:37.995Z,98510.91
2018-10-04T03:02:04.649Z,98512.48
2018-10-04T03:04:31.313Z,98512.34
2018-10-04T03:06:57.813Z,98510.10
2018-10-04T03:09:24.279Z,98509.57
2018-10-04T03:11:50.837Z,98510.89
2018-10-04T03:14:17.508Z,98513.16
2018-10-04T03:16:43.996Z,98503.10
2018-10-04T03:21:44.417Z,98515.37
2018-10-04T03:24:11.057Z,98508.09
2018-10-04T03:26:38.707Z,98506.92
2018-10-04T03:29:05.942Z,98509.48
2018-10-04T03:34:05.439Z,98520.73
2018-10-04T03:36:32.707Z,98527.52
2018-10-04T03:39:00.075Z,98519.38
2018-10-04T03:41:26.744Z,98517.91
2018-10-04T03:43:53.406Z,98523.37
2018-10-04T03:46:20.589Z,98521.70
2018-10-04T03:48:47.942Z,98530.27
2018-10-04T03:51:15.223Z,98522.95
2018-10-04T03:53:42.521Z,98523.75
2018-10-04T03:56:10.540Z,98531.34
2018-10-04T03:58:37.745Z,98529.25
2018-10-04T04:01:05.673Z,98523.80
2018-10-04T04:03:33.275Z,98523.56
2018-10-04T04:06:01.195Z,98524.48
2018-10-04T04:08:28.295Z,98526.31
2018-10-04T04:10:54.951Z,98528.37
2018-10-04T04:13:21.442Z,98531.34
2018-10-04T04:15:48.573Z,98533.17
2018-10-04T04:18:15.498Z,98533.71
2018-10-04T04:20:42.057Z,98532.02
2018-10-04T04:23:09.154Z,98531.89
2018-10-04T04:25:35.848Z,98538.64
2018-10-04T04:28:02.401Z,98535.88
2018-10-04T04:30:29.125Z,98537.63
2018-10-04T04:32:56.151Z,98537.37
2018-10-04T04:35:22.666Z,98540.48
2018-10-04T04:37:49.210Z,98536.36
2018-10-04T04:40:15.872Z,98536.29
2018-10-04T04:42:43.774Z,98533.17
2018-10-04T04:45:11.082Z,98537.55
2018-10-04T04:47:39.527Z,98542.16
2018-10-04T04:50:06.787Z,98546.48
2018-10-04T04:52:33.427Z,98542.75
2018-10-04T04:55:00.398Z,98545.34
2018-10-04T04:57:27.548Z,98542.85
2018-10-04T04:59:55.589Z,98552.11
2018-10-04T05:02:22.095Z,98550.80
2018-10-04T05:04:49.126Z,98547.77
2018-10-04T05:07:15.848Z,98558.80
2018-10-04T05:09:42.447Z,98562.23
2018-10-04T05:12:08.961Z,98571.29
2018-10-04T05:14:35.976Z,98578.52
2018-10-04T05:17:03.987Z,98586.33
2018-10-04T05:19:31.227Z,98587.12
2018-10-04T05:21:58.545Z,98589.14
2018-10-04T05:24:25.532Z,98599.05
2018-10-04T05:26:54.025Z,98598.52
2018-10-04T05:29:20.502Z,98601.83
2018-10-04T05:31:47.671Z,98605.11
2018-10-04T05:34:14.806Z,98610.27
2018-10-04T05:36:41.435Z,98614.87
2018-10-04T05:39:08.286Z,98610.83
2018-10-04T05:41:36.699Z,98614.26
2018-10-04T05:44:03.365Z,98614.09
2018-10-04T05:46:30.063Z,98612.23
2018-10-04T05:48:56.857Z,98617.72
2018-10-04T05:51:23.458Z,98621.92
2018-10-04T05:53:49.977Z,98621.44
2018-10-04T05:56:17.262Z,98628.92
2018-10-04T05:58:44.076Z,98643.74
2018-10-04T06:01:11.132Z,98647.89
2018-10-04T06:03:38.645Z,98651.01
2018-10-04T06:06:08.669Z,98649.03
2018-10-04T06:08:37.885Z,98650.27
2018-10-04T06:11:04.433Z,98653.58
2018-10-04T06:13:30.976Z,98654.27
2018-10-04T06:15:57.487Z,98656.44
2018-10-04T06:18:24.070Z,98661.20
2018-10-04T06:23:22.646Z,98656.70
2018-10-04T06:25:49.232Z,98663.11
2018-10-04T06:28:17.363Z,98670.19
2018-10-04T06:30:44.272Z,98668.75
2018-10-04T06:33:10.735Z,98668.14
2018-10-04T06:35:38.542Z,98671.60
2018-10-04T06:38:05.892Z,98674.25
2018-10-04T06:40:32.566Z,98672.75
2018-10-04T06:42:59.713Z,98673.75
2018-10-04T06:45:26.339Z,98679.86
2018-10-04T06:47:52.957Z,98685.39
2018-10-04T06:50:20.186Z,98686.84
2018-10-04T06:52:48.261Z,98691.77
2018-10-04T06:55:15.198Z,98688.04
2018-10-04T06:57:42.790Z,98688.84
2018-10-04T07:00:11.070Z,98680.27
2018-10-04T07:02:38.469Z,98689.44
2018-10-04T07:05:05.955Z,98689.41
2018-10-04T07:07:32.656Z,98691.65
2018-10-04T07:10:00.380Z,98696.67
2018-10-04T07:12:27.890Z,98695.66
2018-10-04T07:14:54.433Z,98695.86
2018-10-04T07:17:20.970Z,98690.20
2018-10-04T07:19:48.083Z,98698.25
2018-10-04T07:22:14.613Z,98695.22
2018-10-04T07:24:41.812Z,98694.36
2018-10-04T07:27:09.604Z,98703.70
2018-10-04T07:29:39.380Z,98705.97
2018-10-04T07:32:05.852Z,98702.12
2018-10-04T07:34:33.330Z,98704.11
2018-10-04T07:37:01.089Z,98702.78
2018-10-04T07:39:27.597Z,98707.48
2018-10-04T07:41:55.920Z,98702.85
2018-10-04T07:44:22.759Z,98702.91
2018-10-04T07:46:49.276Z,98712.11
2018-10-04T07:49:15.841Z,98715.67
2018-10-04T07:51:42.387Z,98716.86
2018-10-04T07:54:10.049Z,98710.89
2018-10-04T07:56:36.892Z,98713.67
2018-10-04T07:59:04.461Z,98720.00
2018-10-04T08:01:31.998Z,98710.36
2018-10-04T08:03:59.494Z,98723.88
2018-10-04T08:06:27.900Z,98715.34
2018-10-04T08:08:55.014Z,98714.59
2018-10-04T08:11:21.541Z,98712.94
2018-10-04T08:13:48.313Z,98713.32
2018-10-04T08:16:15.039Z,98714.61
2018-10-04T08:18:44.194Z,98714.30
2018-10-04T08:21:11.372Z,98715.05
2018-10-04T08:23:38.661Z,98715.00
2018-10-04T08:26:05.824Z,98715.94
2018-10-04T08:28:32.431Z,98713.77
2018-10-04T08:30:58.953Z,98709.68
2018-10-04T08:33:26.077Z,98709.81
2018-10-04T08:35:53.293Z,98714.68
2018-10-04T08:38:20.026Z,98711.23
2018-10-04T08:40:47.369Z,98712.30
2018-10-04T08:43:14.089Z,98711.53
2018-10-04T08:45:43.343Z,98708.34
2018-10-04T08:48:10.185Z,98706.70
2018-10-04T08:50:36.826Z,98703.02
2018-10-04T08:53:03.356Z,98705.69
2018-10-04T08:55:29.953Z,98704.07
2018-10-04T08:57:57.711Z,98700.13
2018-10-04T09:00:25.127Z,98694.93
2018-10-04T09:02:51.655Z,98694.88
2018-10-04T09:05:18.431Z,98696.23
2018-10-04T09:07:45.085Z,98691.73
2018-10-04T09:10:12.880Z,98698.63
2018-10-04T09:12:39.787Z,98692.81
2018-10-04T09:15:07.113Z,98686.70
2018-10-04T09:17:34.402Z,98693.39
2018-10-04T09:20:01.148Z,98692.37
2018-10-04T09:22:28.844Z,98692.95
2018-10-04T09:24:55.372Z,98693.70
2018-10-04T09:27:23.320Z,98692.98
2018-10-04T09:29:49.970Z,98694.97
2018-10-04T09:32:16.522Z,98689.49
2018-10-04T09:34:43.059Z,98685.80
2018-10-04T09:37:09.998Z,98684.33
2018-10-04T09:39:36.525Z,98682.34
2018-10-04T09:42:03.243Z,98676.25
2018-10-04T09:44:30.900Z,98675.64
2018-10-04T09:46:58.557Z,98676.91
2018-10-04T09:49:25.318Z,98673.28
2018-10-04T09:51:52.526Z,98670.55
2018-10-04T09:54:19.312Z,98667.56
2018-10-04T09:56:45.868Z,98665.08
2018-10-04T09:59:12.848Z,98661.10
2018-10-04T10:01:40.407Z,98657.06
2018-10-04T10:04:07.793Z,98656.45
2018-10-04T10:06:34.290Z,98657.02
2018-10-04T10:09:01.966Z,98657.00
2018-10-04T10:14:02.419Z,98647.90
2018-10-04T10:16:30.114Z,98643.09
2018-10-04T10:18:57.882Z,98645.94
2018-10-04T10:21:24.442Z,98643.02
2018-10-04T10:26:23.842Z,98640.56
2018-10-04T10:28:50.520Z,98637.25
2018-10-04T10:31:18.473Z,98634.00
2018-10-04T10:33:44.997Z,98636.87
2018-10-04T10:36:11.748Z,98631.95
2018-10-04T10:38:39.762Z,98630.27
2018-10-04T10:41:07.057Z,98616.81
2018-10-04T10:43:34.924Z,98614.13
2018-10-04T10:46:02.606Z,98627.02
2018-10-04T10:48:29.096Z,98619.06
2018-10-04T10:50:55.750Z,98616.98
2018-10-04T10:53:22.499Z,98614.52
2018-10-04T10:55:49.243Z,98615.50
2018-10-04T10:58:15.885Z,98608.45
2018-10-04T11:00:43.113Z,98607.55
2018-10-04T11:03:10.712Z,98604.85
2018-10-04T11:05:37.330Z,98601.63
2018-10-04T11:08:05.195Z,98595.88
2018-10-04T11:10:38.462Z,98583.07
2018-10-04T11:12:58.732Z,98588.37
2018-10-04T11:15:26.294Z,98580.88
2018-10-04T11:17:53.697Z,98584.94
2018-10-04T11:20:20.846Z,98577.54
2018-10-04T11:22:48.448Z,98575.81
2018-10-04T11:25:16.631Z,98568.67
2018-10-04T11:27:43.674Z,98569.47
2018-10-04T11:30:11.379Z,98572.58
2018-10-04T11:32:38.560Z,98569.75
2018-10-04T11:35:05.390Z,98563.78
2018-10-04T11:37:31.910Z,98559.22
2018-10-04T11:39:58.373Z,98566.14
2018-10-04T11:42:24.927Z,98552.48
2018-10-04T11:44:52.072Z,98558.03
2018-10-04T11:47:19.840Z,98555.28
2018-10-04T11:49:46.988Z,98550.54
2018-10-04T11:52:13.976Z,98541.31
2018-10-04T11:54:40.593Z,98545.03
2018-10-04T11:57:07.420Z,98546.91
2018-10-04T11:59:34.502Z,98545.98
2018-10-04T12:02:01.637Z,98542.11
2018-10-04T12:04:29.038Z,98530.20
2018-10-04T12:06:55.621Z,98530.06
2018-10-04T12:09:22.297Z,98534.73
2018-10-04T12:11:50.305Z,98534.40
2018-10-04T12:14:18.035Z,98528.14
2018-10-04T12:16:45.086Z,98531.59
2018-10-04T12:19:13.111Z,98529.88
2018-10-04T12:21:40.351Z,98525.24
2018-10-04T12:24:07.461Z,98520.67
2018-10-04T12:26:35.144Z,98514.64
2018-10-04T12:29:02.490Z,98521.55
2018-10-04T12:31:29.134Z,98516.83
2018-10-04T12:33:56.368Z,98510.80
2018-10-04T12:36:23.971Z,98515.40
2018-10-04T12:38:50.489Z,98516.66
2018-10-04T12:41:17.140Z,98508.86
2018-10-04T12:43:44.395Z,98509.58
2018-10-04T12:46:11.762Z,98509.67
2018-10-04T12:48:38.493Z,98505.84
2018-10-04T12:51:05.848Z,98510.08
2018-10-04T12:53:32.491Z,98500.52
2018-10-04T12:55:59.792Z,98501.06
2018-10-04T12:58:28.316Z,98497.03
2018-10-04T13:00:54.962Z,98502.56
2018-10-04T13:03:21.712Z,98503.10
2018-10-04T13:05:48.240Z,98499.36
2018-10-04T13:08:14.832Z,98499.78
2018-10-04T13:10:41.493Z,98493.23
2018-10-04T13:13:08.777Z,98489.95
2018-10-04T13:15:36.239Z,98492.23
2018-10-04T13:18:02.827Z,98493.55
2018-10-04T13:20:30.073Z,98498.17
2018-10-04T13:22:56.698Z,98482.06
2018-10-04T13:25:23.341Z,98494.23
2018-10-04T13:27:51.839Z,98489.84
2018-10-04T13:30:18.401Z,98486.79
2018-10-04T13:32:44.860Z,98491.70
2018-10-04T13:35:11.593Z,98486.50
2018-10-04T13:37:38.180Z,98486.31
2018-10-04T13:40:05.174Z,98483.17
2018-10-04T13:42:31.653Z,98481.64
2018-10-04T13:44:58.129Z,98480.07
2018-10-04T13:47:24.931Z,98483.55
2018-10-04T13:49:51.436Z,98477.11
2018-10-04T13:52:18.579Z,98475.44
2018-10-04T13:54:45.750Z,98481.27
2018-10-04T13:57:12.257Z,98481.40
2018-10-04T13:59:38.980Z,98479.02
2018-10-04T14:02:07.613Z,98471.02
2018-10-04T14:04:34.720Z,98475.77
2018-10-04T14:07:01.886Z,98477.27
2018-10-04T14:09:28.395Z,98483.32
2018-10-04T14:11:56.349Z,98478.14
2018-10-04T14:14:23.382Z,98470.88
2018-10-04T14:16:50.422Z,98472.86
2018-10-04T14:19:16.951Z,98480.44
2018-10-04T14:21:43.659Z,98470.43
2018-10-04T14:24:11.295Z,98477.03
2018-10-04T14:26:38.662Z,98470.16
2018-10-04T14:29:05.803Z,98469.78
2018-10-04T14:31:32.548Z,98472.09
2018-10-04T14:34:00.628Z,98468.09
2018-10-04T14:36:27.843Z,98465.38
2018-10-04T14:38:54.891Z,98468.13
2018-10-04T14:41:21.453Z,98471.16
2018-10-04T14:43:47.928Z,98466.18
2018-10-04T14:46:15.196Z,98462.03
2018-10-04T14:48:41.917Z,98457.17
2018-10-04T14:51:09.974Z,98458.36
2018-10-04T14:53:37.288Z,98460.59
2018-10-04T14:56:04.376Z,98461.08
2018-10-04T14:58:31.119Z,98460.25
2018-10-04T15:00:57.775Z,98463.66
2018-10-04T15:03:25.033Z,98458.48
2018-10-04T15:05:51.669Z,98459.70
2018-10-04T15:08:18.155Z,98453.53
2018-10-04T15:10:44.924Z,98458.77
2018-10-04T15:13:11.394Z,98456.30
2018-10-04T15:15:38.607Z,98462.02
2018-10-04T15:20:37.565Z,98458.97
2018-10-04T15:23:04.157Z,98456.70
2018-10-04T15:25:30.809Z,98462.78
2018-10-04T15:27:57.291Z,98464.85
2018-10-04T15:30:23.845Z,98463.19
2018-10-04T15:32:50.624Z,98461.98
2018-10-04T15:35:19.121Z,98462.02
2018-10-04T15:37:46.247Z,98464.06
2018-10-04T15:40:14.017Z,98464.98
2018-10-04T15:42:40.742Z,98462.63
2018-10-04T15:45:09.787Z,98469.41
2018-10-04T15:47:36.888Z,98466.41
2018-10-04T15:50:03.465Z,98470.28
2018-10-04T15:52:30.001Z,98477.27
2018-10-04T15:54:56.558Z,98479.69
2018-10-04T15:57:23.890Z,98476.68
2018-10-04T15:59:51.046Z,98478.17
2018-10-04T16:02:17.501Z,98474.74
2018-10-04T16:04:44.981Z,98488.49
2018-10-04T16:07:12.286Z,98494.88
2018-10-04T16:09:39.288Z,98491.33
2018-10-04T16:12:05.809Z,98496.07
2018-10-04T16:14:32.538Z,98505.86
2018-10-04T16:16:59.306Z,98501.07
2018-10-04T16:19:28.473Z,98498.91
2018-10-04T16:21:55.052Z,98501.16
2018-10-04T16:24:21.586Z,98509.08
2018-10-04T16:26:48.799Z,98501.16
2018-10-04T16:29:16.906Z,98502.84
2018-10-04T16:31:43.424Z,98507.41
2018-10-04T16:36:41.891Z,98511.99
2018-10-04T16:39:08.344Z,98507.91
2018-10-04T16:41:34.877Z,98512.45
2018-10-04T16:44:01.452Z,98511.02
2018-10-04T16:46:28.626Z,98514.41
2018-10-04T16:48:56.262Z,98509.69
2018-10-04T16:51:23.389Z,98512.36
2018-10-04T16:53:50.148Z,98514.28
2018-10-04T16:56:16.765Z,98525.63
2018-10-04T17:01:16.571Z,98528.30
2018-10-04T17:03:43.690Z,98530.53
2018-10-04T17:06:13.085Z,98530.42
2018-10-04T17:08:39.653Z,98523.59
2018-10-04T17:11:06.294Z,98526.53
2018-10-04T17:13:32.946Z,98527.58
2018-10-04T17:15:59.474Z,98543.63
2018-10-04T17:18:26.191Z,98545.16
2018-10-04T17:20:52.967Z,98547.52
2018-10-04T17:23:21.362Z,98549.59
2018-10-04T17:25:47.933Z,98551.06
2018-10-04T17:28:14.471Z,98555.72
2018-10-04T17:30:41.339Z,98554.44
2018-10-04T17:33:09.059Z,98552.66
2018-10-04T17:35:35.789Z,98553.28
2018-10-04T17:38:03.449Z,98553.28
2018-10-04T17:40:30.682Z,98554.25
2018-10-04T17:42:58.456Z,98552.93
2018-10-04T17:45:26.541Z,98560.70
2018-10-04T17:47:53.431Z,98557.61
2018-10-04T17:50:20.814Z,98553.77
2018-10-04T17:52:47.349Z,98561.40
2018-10-04T17:55:14.788Z,98561.06
2018-10-04T17:57:41.317Z,98560.41
2018-10-04T18:00:08.408Z,98564.71
2018-10-04T18:02:34.886Z,98564.98
2018-10-04T18:05:01.419Z,98568.71
2018-10-04T18:07:27.945Z,98573.46
2018-10-04T18:09:54.454Z,98570.59
2018-10-04T18:12:20.933Z,98582.06
2018-10-04T18:14:48.070Z,98574.98
2018-10-04T18:17:14.661Z,98570.23
2018-10-04T18:19:46.135Z,98575.84
2018-10-04T18:22:13.779Z,98573.96
2018-10-04T18:24:40.928Z,98572.93
2018-10-04T18:27:07.751Z,98576.61
2018-10-04T18:29:36.035Z,98570.83
2018-10-04T18:32:05.417Z,98574.06
2018-10-04T18:34:32.006Z,98575.29
2018-10-04T18:36:59.385Z,98569.86
2018-10-04T18:39:26.000Z,98570.59
2018-10-04T18:41:53.108Z,98575.91
2018-10-04T18:44:20.326Z,98571.31
2018-10-04T18:46:46.953Z,98574.08
2018-10-04T18:49:13.515Z,98578.19
2018-10-04T18:51:40.809Z,98586.75
2018-10-04T18:54:07.302Z,98585.05
2018-10-04T18:56:35.428Z,98580.33
2018-10-04T18:59:02.590Z,98585.52
2018-10-04T19:01:30.410Z,98583.52
2018-10-04T19:03:57.573Z,98584.27
2018-10-04T19:06:25.926Z,98581.98
2018-10-04T19:08:53.682Z,98586.16
2018-10-04T19:11:21.012Z,98583.16
2018-10-04T19:13:47.492Z,98591.28
2018-10-04T19:16:15.176Z,98588.26
2018-10-04T19:18:41.687Z,98590.98
2018-10-04T19:21:09.762Z,98592.70
2018-10-04T19:23:37.004Z,98586.75
2018-10-04T19:26:05.439Z,98590.14
2018-10-04T19:28:32.822Z,98597.17
2018-10-04T19:31:00.005Z,98598.05
2018-10-04T19:33:28.224Z,98595.84
2018-10-04T19:35:55.501Z,98593.30
2018-10-04T19:38:22.630Z,98590.58
2018-10-04T19:40:49.394Z,98590.20
2018-10-04T19:43:17.188Z,98596.09
2018-10-04T19:45:44.848Z,98596.14
2018-10-04T19:48:12.384Z,98592.97
2018-10-04T19:50:38.852Z,98596.28
2018-10-04T19:53:05.876Z,98598.65
2018-10-04T19:55:32.983Z,98605.19
2018-10-04T19:58:00.534Z,98603.98
2018-10-04T20:00:27.006Z,98603.27
2018-10-04T20:02:54.147Z,98606.21
2018-10-04T20:05:21.366Z,98602.41
2018-10-04T20:07:48.936Z,98604.03
2018-10-04T20:10:15.651Z,98604.38
2018-10-04T20:12:42.186Z,98602.34
2018-10-04T20:15:10.478Z,98599.29
2018-10-04T20:17:37.622Z,98603.57
2018-10-04T20:20:04.336Z,98601.32
2018-10-04T20:22:32.431Z,98604.88
2018-10-04T20:24:59.577Z,98602.95
2018-10-04T20:27:27.174Z,98605.09
2018-10-04T20:29:53.657Z,98596.81
2018-10-04T20:32:21.034Z,98598.92
2018-10-04T20:34:47.845Z,98594.13
2018-10-04T20:37:15.366Z,98597.44
2018-10-04T20:39:43.851Z,98599.45
2018-10-04T20:42:11.017Z,98600.31
2018-10-04T20:44:38.505Z,98600.78
2018-10-04T20:47:05.934Z,98600.43
2018-10-04T20:49:33.148Z,98605.36
2018-10-04T20:52:00.660Z,98603.92
2018-10-04T20:54:27.190Z,98606.13
2018-10-04T20:56:53.782Z,98608.52
2018-10-04T20:59:21.266Z,98614.13
2018-10-04T21:01:48.851Z,98612.20
2018-10-04T21:04:16.277Z,98604.27
2018-10-04T21:06:43.363Z,98610.31
2018-10-04T21:09:13.525Z,98608.67
2018-10-04T21:11:41.341Z,98608.67
2018-10-04T21:14:08.524Z,98608.02
2018-10-04T21:16:36.962Z,98604.92
2018-10-04T21:19:04.945Z,98603.78
2018-10-04T21:21:32.966Z,98610.72
2018-10-04T21:24:01.463Z,98599.36
2018-10-04T21:26:28.735Z,98602.15
2018-10-04T21:28:55.983Z,98607.44
2018-10-04T21:31:22.552Z,98605.80
2018-10-04T21:33:49.009Z,98612.41
2018-10-04T21:36:15.694Z,98614.55
2018-10-04T21:38:42.381Z,98604.64
2018-10-04T21:41:10.861Z,98615.55
2018-10-04T21:43:37.466Z,98611.06
2018-10-04T21:46:04.056Z,98610.77
2018-10-04T21:48:33.779Z,98606.00
2018-10-04T21:51:01.742Z,98608.00
2018-10-04T21:53:28.274Z,98607.48
2018-10-04T21:55:54.822Z,98604.69
2018-10-04T21:58:22.583Z,98615.10
2018-10-04T22:00:49.319Z,98613.61
2018-10-04T22:03:16.001Z,98620.22
2018-10-04T22:05:42.461Z,98611.66
2018-10-04T22:08:09.236Z,98614.44
2018-10-04T22:10:35.836Z,98620.39
2018-10-04T22:13:03.021Z,98622.50
2018-10-04T22:15:30.392Z,98619.73
2018-10-04T22:17:57.536Z,98615.12
2018-10-04T22:20:24.020Z,98614.47
2018-10-04T22:22:50.641Z,98616.74
2018-10-04T22:25:17.798Z,98613.63
2018-10-04T22:27:44.933Z,98606.37
2018-10-04T22:30:11.620Z,98603.91
2018-10-04T22:32:38.077Z,98600.80
2018-10-04T22:35:05.781Z,98596.83
2018-10-04T22:37:32.293Z,98594.03
2018-10-04T22:39:58.773Z,98594.19
2018-10-04T22:42:26.102Z,98598.78
2018-10-04T22:44:52.669Z,98597.13
2018-10-04T22:47:20.853Z,98594.64
2018-10-04T22:49:47.375Z,98598.44
2018-10-04T22:52:15.016Z,98603.22
2018-10-04T22:54:42.067Z,98598.42
2018-10-04T22:57:09.231Z,98597.77
2018-10-04T22:59:35.784Z,98602.20
2018-10-04T23:02:03.039Z,98598.09
2018-10-04T23:04:30.446Z,98591.97
2018-10-04T23:06:58.090Z,98604.48
2018-10-04T23:09:24.601Z,98604.19
2018-10-04T23:11:51.206Z,98607.31
2018-10-04T23:14:17.734Z,98608.82
2018-10-04T23:16:44.387Z,98606.18
2018-10-04T23:19:10.877Z,98609.95
2018-10-04T23:21:38.104Z,98611.91
2018-10-04T23:24:04.679Z,98607.47
2018-10-04T23:26:31.745Z,98605.47
2018-10-04T23:28:58.791Z,98606.98
2018-10-04T23:31:25.938Z,98613.40
2018-10-04T23:33:53.616Z,98613.55
2018-10-04T23:36:21.225Z,98611.91
2018-10-04T23:38:48.563Z,98610.89
2018-10-04T23:41:15.869Z,98613.82
2018-10-04T23:43:42.998Z,98609.40
2018-10-04T23:46:10.180Z,98613.28
2018-10-04T23:48:36.674Z,98605.86
2018-10-04T23:51:03.920Z,98612.79
2018-10-04T23:53:31.199Z,98612.15
2018-10-04T23:55:58.814Z,98601.45
2018-10-04T23:58:26.153Z,98602.77
